sensor_id;sensor_type;location;lat;lon;timestamp;P1;durP1;ratioP1;P2;durP2;ratioP2
7845;SDS011;3968;51.424;6.788;2022-10-18T00:01:25;10.60;;;5.13;;
7845;SDS011;3968;51.424;6.788;2022-10-18T00:03:51;13.18;;;4.82;;
7845;SDS011;3968;51.424;6.788;2022-10-18T00:06:16;7.72;;;5.13;;
7845;SDS011;3968;51.424;6.788;2022-10-18T00:08:42;11.43;;;4.97;;
7845;SDS011;3968;51.424;6.788;2022-10-18T00:11:08;8.52;;;5.13;;
7845;SDS011;3968;51.424;6.788;2022-10-18T00:13:34;7.70;;;4.83;;
7845;SDS011;3968;51.424;6.788;2022-10-18T00:16:00;8.90;;;4.82;;
7845;SDS011;3968;51.424;6.788;2022-10-18T00:18:28;11.70;;;4.50;;
7845;SDS011;3968;51.424;6.788;2022-10-18T00:20:58;9.38;;;4.57;;
7845;SDS011;3968;51.424;6.788;2022-10-18T00:23:31;9.52;;;4.50;;
7845;SDS011;3968;51.424;6.788;2022-10-18T00:26:10;10.48;;;5.00;;
7845;SDS011;3968;51.424;6.788;2022-10-18T00:28:37;13.15;;;4.72;;
7845;SDS011;3968;51.424;6.788;2022-10-18T00:31:11;6.05;;;4.65;;
7845;SDS011;3968;51.424;6.788;2022-10-18T00:33:40;5.85;;;4.38;;
7845;SDS011;3968;51.424;6.788;2022-10-18T00:36:07;8.30;;;5.00;;
7845;SDS011;3968;51.424;6.788;2022-10-18T00:38:33;7.23;;;4.60;;
7845;SDS011;3968;51.424;6.788;2022-10-18T00:40:59;11.80;;;4.60;;
7845;SDS011;3968;51.424;6.788;2022-10-18T00:43:24;7.13;;;3.88;;
7845;SDS011;3968;51.424;6.788;2022-10-18T00:45:50;6.27;;;4.50;;
7845;SDS011;3968;51.424;6.788;2022-10-18T00:48:15;8.63;;;5.07;;
7845;SDS011;3968;51.424;6.788;2022-10-18T00:50:44;6.38;;;4.80;;
7845;SDS011;3968;51.424;6.788;2022-10-18T00:53:14;9.95;;;4.85;;
7845;SDS011;3968;51.424;6.788;2022-10-18T00:55:42;6.30;;;4.43;;
7845;SDS011;3968;51.424;6.788;2022-10-18T00:58:08;8.25;;;5.07;;
7845;SDS011;3968;51.424;6.788;2022-10-18T01:00:36;9.45;;;5.00;;
7845;SDS011;3968;51.424;6.788;2022-10-18T01:03:04;10.30;;;5.10;;
7845;SDS011;3968;51.424;6.788;2022-10-18T01:05:32;6.37;;;5.00;;
7845;SDS011;3968;51.424;6.788;2022-10-18T01:13:10;6.90;;;4.80;;
7845;SDS011;3968;51.424;6.788;2022-10-18T01:15:59;9.00;;;4.78;;
7845;SDS011;3968;51.424;6.788;2022-10-18T01:21:24;6.82;;;4.63;;
7845;SDS011;3968;51.424;6.788;2022-10-18T01:29:31;7.00;;;4.63;;
7845;SDS011;3968;51.424;6.788;2022-10-18T01:32:06;8.73;;;4.47;;
7845;SDS011;3968;51.424;6.788;2022-10-18T01:34:37;10.40;;;5.63;;
7845;SDS011;3968;51.424;6.788;2022-10-18T01:37:04;6.63;;;5.10;;
7845;SDS011;3968;51.424;6.788;2022-10-18T01:39:36;12.10;;;5.47;;
7845;SDS011;3968;51.424;6.788;2022-10-18T01:42:05;7.32;;;5.22;;
7845;SDS011;3968;51.424;6.788;2022-10-18T01:44:34;7.00;;;4.87;;
7845;SDS011;3968;51.424;6.788;2022-10-18T01:47:03;8.52;;;5.50;;
7845;SDS011;3968;51.424;6.788;2022-10-18T01:49:33;7.15;;;4.45;;
7845;SDS011;3968;51.424;6.788;2022-10-18T01:51:58;6.25;;;5.40;;
7845;SDS011;3968;51.424;6.788;2022-10-18T01:54:26;7.77;;;5.90;;
7845;SDS011;3968;51.424;6.788;2022-10-18T01:59:53;12.35;;;6.07;;
7845;SDS011;3968;51.424;6.788;2022-10-18T02:02:41;7.68;;;5.35;;
7845;SDS011;3968;51.424;6.788;2022-10-18T02:10:38;7.43;;;4.95;;
7845;SDS011;3968;51.424;6.788;2022-10-18T02:13:09;7.68;;;5.18;;
7845;SDS011;3968;51.424;6.788;2022-10-18T02:15:38;6.43;;;5.18;;
7845;SDS011;3968;51.424;6.788;2022-10-18T02:18:08;8.45;;;6.07;;
7845;SDS011;3968;51.424;6.788;2022-10-18T02:20:39;14.68;;;5.80;;
7845;SDS011;3968;51.424;6.788;2022-10-18T02:23:06;13.10;;;5.33;;
7845;SDS011;3968;51.424;6.788;2022-10-18T02:25:34;10.65;;;5.40;;
7845;SDS011;3968;51.424;6.788;2022-10-18T02:28:02;6.82;;;5.07;;
7845;SDS011;3968;51.424;6.788;2022-10-18T02:30:31;11.25;;;5.25;;
7845;SDS011;3968;51.424;6.788;2022-10-18T02:33:10;9.70;;;5.90;;
7845;SDS011;3968;51.424;6.788;2022-10-18T02:35:58;8.15;;;5.60;;
7845;SDS011;3968;51.424;6.788;2022-10-18T02:38:28;7.63;;;5.07;;
7845;SDS011;3968;51.424;6.788;2022-10-18T02:40:56;11.27;;;6.07;;
7845;SDS011;3968;51.424;6.788;2022-10-18T02:43:25;8.43;;;5.53;;
7845;SDS011;3968;51.424;6.788;2022-10-18T02:45:51;15.07;;;5.65;;
7845;SDS011;3968;51.424;6.788;2022-10-18T02:48:16;8.93;;;5.57;;
7845;SDS011;3968;51.424;6.788;2022-10-18T02:50:42;6.15;;;5.55;;
7845;SDS011;3968;51.424;6.788;2022-10-18T02:53:08;9.25;;;5.47;;
7845;SDS011;3968;51.424;6.788;2022-10-18T02:55:33;9.70;;;6.38;;
7845;SDS011;3968;51.424;6.788;2022-10-18T02:57:59;11.45;;;5.95;;
7845;SDS011;3968;51.424;6.788;2022-10-18T03:00:24;9.95;;;6.03;;
7845;SDS011;3968;51.424;6.788;2022-10-18T03:02:50;9.90;;;6.55;;
7845;SDS011;3968;51.424;6.788;2022-10-18T03:05:17;15.13;;;8.13;;
7845;SDS011;3968;51.424;6.788;2022-10-18T03:07:43;8.15;;;6.57;;
7845;SDS011;3968;51.424;6.788;2022-10-18T03:10:08;8.32;;;6.70;;
7845;SDS011;3968;51.424;6.788;2022-10-18T03:12:34;9.82;;;6.57;;
7845;SDS011;3968;51.424;6.788;2022-10-18T03:15:00;10.38;;;6.85;;
7845;SDS011;3968;51.424;6.788;2022-10-18T03:17:25;10.02;;;6.93;;
7845;SDS011;3968;51.424;6.788;2022-10-18T03:19:51;9.80;;;7.03;;
7845;SDS011;3968;51.424;6.788;2022-10-18T03:22:16;9.95;;;6.47;;
7845;SDS011;3968;51.424;6.788;2022-10-18T03:24:42;7.18;;;6.40;;
7845;SDS011;3968;51.424;6.788;2022-10-18T03:27:07;8.68;;;6.38;;
7845;SDS011;3968;51.424;6.788;2022-10-18T03:29:33;10.90;;;6.85;;
7845;SDS011;3968;51.424;6.788;2022-10-18T03:31:59;9.90;;;6.78;;
7845;SDS011;3968;51.424;6.788;2022-10-18T03:34:24;10.48;;;6.10;;
7845;SDS011;3968;51.424;6.788;2022-10-18T03:36:50;8.13;;;6.60;;
7845;SDS011;3968;51.424;6.788;2022-10-18T03:39:15;11.80;;;6.40;;
7845;SDS011;3968;51.424;6.788;2022-10-18T03:41:41;7.47;;;6.35;;
7845;SDS011;3968;51.424;6.788;2022-10-18T03:44:07;12.60;;;7.78;;
7845;SDS011;3968;51.424;6.788;2022-10-18T03:46:32;10.15;;;6.18;;
7845;SDS011;3968;51.424;6.788;2022-10-18T03:48:58;13.70;;;6.88;;
7845;SDS011;3968;51.424;6.788;2022-10-18T03:51:23;11.52;;;6.90;;
7845;SDS011;3968;51.424;6.788;2022-10-18T03:53:49;11.88;;;7.93;;
7845;SDS011;3968;51.424;6.788;2022-10-18T03:56:15;14.60;;;7.85;;
7845;SDS011;3968;51.424;6.788;2022-10-18T03:58:40;12.43;;;8.10;;
7845;SDS011;3968;51.424;6.788;2022-10-18T04:01:06;16.05;;;8.75;;
7845;SDS011;3968;51.424;6.788;2022-10-18T04:03:31;9.95;;;8.15;;
7845;SDS011;3968;51.424;6.788;2022-10-18T04:05:57;14.07;;;9.52;;
7845;SDS011;3968;51.424;6.788;2022-10-18T04:08:24;10.52;;;8.75;;
7845;SDS011;3968;51.424;6.788;2022-10-18T04:10:50;12.73;;;8.30;;
7845;SDS011;3968;51.424;6.788;2022-10-18T04:13:16;16.25;;;8.35;;
7845;SDS011;3968;51.424;6.788;2022-10-18T04:15:42;11.57;;;8.07;;
7845;SDS011;3968;51.424;6.788;2022-10-18T04:18:07;12.30;;;8.25;;
7845;SDS011;3968;51.424;6.788;2022-10-18T04:20:33;13.48;;;8.70;;
7845;SDS011;3968;51.424;6.788;2022-10-18T04:22:59;15.73;;;10.93;;
7845;SDS011;3968;51.424;6.788;2022-10-18T04:25:24;11.60;;;8.70;;
7845;SDS011;3968;51.424;6.788;2022-10-18T04:27:50;11.90;;;8.05;;
7845;SDS011;3968;51.424;6.788;2022-10-18T04:30:16;12.98;;;8.40;;
7845;SDS011;3968;51.424;6.788;2022-10-18T04:32:41;13.55;;;8.02;;
7845;SDS011;3968;51.424;6.788;2022-10-18T04:35:08;13.18;;;8.27;;
7845;SDS011;3968;51.424;6.788;2022-10-18T04:37:34;11.50;;;7.70;;
7845;SDS011;3968;51.424;6.788;2022-10-18T04:40:00;13.40;;;8.93;;
7845;SDS011;3968;51.424;6.788;2022-10-18T04:42:25;10.57;;;7.97;;
7845;SDS011;3968;51.424;6.788;2022-10-18T04:44:51;13.68;;;8.90;;
7845;SDS011;3968;51.424;6.788;2022-10-18T04:47:17;14.65;;;9.52;;
7845;SDS011;3968;51.424;6.788;2022-10-18T04:49:42;16.40;;;8.70;;
7845;SDS011;3968;51.424;6.788;2022-10-18T04:52:08;11.57;;;8.90;;
7845;SDS011;3968;51.424;6.788;2022-10-18T04:54:34;11.95;;;8.32;;
7845;SDS011;3968;51.424;6.788;2022-10-18T04:57:00;14.00;;;9.88;;
7845;SDS011;3968;51.424;6.788;2022-10-18T04:59:25;15.07;;;8.90;;
7845;SDS011;3968;51.424;6.788;2022-10-18T05:01:51;13.00;;;10.10;;
7845;SDS011;3968;51.424;6.788;2022-10-18T05:04:17;17.38;;;11.63;;
7845;SDS011;3968;51.424;6.788;2022-10-18T05:06:42;15.90;;;10.50;;
7845;SDS011;3968;51.424;6.788;2022-10-18T05:09:08;15.40;;;11.90;;
7845;SDS011;3968;51.424;6.788;2022-10-18T05:11:33;22.60;;;14.82;;
7845;SDS011;3968;51.424;6.788;2022-10-18T05:13:59;24.20;;;14.50;;
7845;SDS011;3968;51.424;6.788;2022-10-18T05:16:25;21.10;;;15.00;;
7845;SDS011;3968;51.424;6.788;2022-10-18T05:18:52;18.98;;;13.50;;
7845;SDS011;3968;51.424;6.788;2022-10-18T05:21:18;22.55;;;15.02;;
7845;SDS011;3968;51.424;6.788;2022-10-18T05:23:43;21.00;;;14.07;;
7845;SDS011;3968;51.424;6.788;2022-10-18T05:26:09;19.27;;;14.70;;
7845;SDS011;3968;51.424;6.788;2022-10-18T05:28:35;26.25;;;15.85;;
7845;SDS011;3968;51.424;6.788;2022-10-18T05:31:02;22.80;;;16.45;;
7845;SDS011;3968;51.424;6.788;2022-10-18T05:33:29;22.52;;;14.77;;
7845;SDS011;3968;51.424;6.788;2022-10-18T05:35:55;21.63;;;16.75;;
7845;SDS011;3968;51.424;6.788;2022-10-18T05:38:21;21.17;;;16.45;;
7845;SDS011;3968;51.424;6.788;2022-10-18T05:40:47;22.02;;;15.88;;
7845;SDS011;3968;51.424;6.788;2022-10-18T05:43:13;22.38;;;15.77;;
7845;SDS011;3968;51.424;6.788;2022-10-18T05:45:38;21.92;;;15.57;;
7845;SDS011;3968;51.424;6.788;2022-10-18T05:48:04;22.05;;;15.95;;
7845;SDS011;3968;51.424;6.788;2022-10-18T05:50:31;20.38;;;16.35;;
7845;SDS011;3968;51.424;6.788;2022-10-18T05:52:57;23.50;;;16.38;;
7845;SDS011;3968;51.424;6.788;2022-10-18T05:55:23;20.90;;;16.05;;
7845;SDS011;3968;51.424;6.788;2022-10-18T05:57:49;23.40;;;16.23;;
7845;SDS011;3968;51.424;6.788;2022-10-18T06:00:15;25.98;;;17.42;;
7845;SDS011;3968;51.424;6.788;2022-10-18T06:02:42;26.80;;;16.38;;
7845;SDS011;3968;51.424;6.788;2022-10-18T06:05:07;25.05;;;17.45;;
7845;SDS011;3968;51.424;6.788;2022-10-18T06:07:33;25.25;;;17.15;;
7845;SDS011;3968;51.424;6.788;2022-10-18T06:09:59;22.63;;;17.45;;
7845;SDS011;3968;51.424;6.788;2022-10-18T06:12:24;27.25;;;15.80;;
7845;SDS011;3968;51.424;6.788;2022-10-18T06:14:50;26.30;;;16.60;;
7845;SDS011;3968;51.424;6.788;2022-10-18T06:17:16;21.25;;;16.00;;
7845;SDS011;3968;51.424;6.788;2022-10-18T06:19:41;23.40;;;16.48;;
7845;SDS011;3968;51.424;6.788;2022-10-18T06:22:10;26.30;;;17.35;;
7845;SDS011;3968;51.424;6.788;2022-10-18T06:24:36;23.33;;;17.08;;
7845;SDS011;3968;51.424;6.788;2022-10-18T06:27:02;25.55;;;17.23;;
7845;SDS011;3968;51.424;6.788;2022-10-18T06:29:36;23.50;;;17.85;;
7845;SDS011;3968;51.424;6.788;2022-10-18T06:32:03;22.85;;;17.40;;
7845;SDS011;3968;51.424;6.788;2022-10-18T06:34:30;24.02;;;16.35;;
7845;SDS011;3968;51.424;6.788;2022-10-18T06:36:56;25.30;;;16.77;;
7845;SDS011;3968;51.424;6.788;2022-10-18T06:39:22;29.58;;;17.02;;
7845;SDS011;3968;51.424;6.788;2022-10-18T06:41:47;24.02;;;17.75;;
7845;SDS011;3968;51.424;6.788;2022-10-18T06:44:13;27.10;;;17.30;;
7845;SDS011;3968;51.424;6.788;2022-10-18T06:46:42;28.35;;;18.52;;
7845;SDS011;3968;51.424;6.788;2022-10-18T06:49:09;26.48;;;19.20;;
7845;SDS011;3968;51.424;6.788;2022-10-18T06:51:35;25.48;;;18.90;;
7845;SDS011;3968;51.424;6.788;2022-10-18T06:54:01;27.42;;;19.90;;
7845;SDS011;3968;51.424;6.788;2022-10-18T06:56:27;28.73;;;20.58;;
7845;SDS011;3968;51.424;6.788;2022-10-18T06:58:53;32.63;;;20.45;;
7845;SDS011;3968;51.424;6.788;2022-10-18T07:01:19;29.33;;;20.02;;
7845;SDS011;3968;51.424;6.788;2022-10-18T07:03:45;28.92;;;20.65;;
7845;SDS011;3968;51.424;6.788;2022-10-18T07:06:13;28.55;;;20.30;;
7845;SDS011;3968;51.424;6.788;2022-10-18T07:08:40;30.77;;;20.58;;
7845;SDS011;3968;51.424;6.788;2022-10-18T07:11:06;30.38;;;21.45;;
7845;SDS011;3968;51.424;6.788;2022-10-18T07:13:34;28.13;;;21.48;;
7845;SDS011;3968;51.424;6.788;2022-10-18T07:16:01;26.40;;;19.45;;
7845;SDS011;3968;51.424;6.788;2022-10-18T07:18:35;30.95;;;21.30;;
7845;SDS011;3968;51.424;6.788;2022-10-18T07:21:06;31.48;;;22.00;;
7845;SDS011;3968;51.424;6.788;2022-10-18T07:23:35;29.20;;;21.05;;
7845;SDS011;3968;51.424;6.788;2022-10-18T07:26:03;35.10;;;22.02;;
7845;SDS011;3968;51.424;6.788;2022-10-18T07:28:36;35.30;;;21.95;;
7845;SDS011;3968;51.424;6.788;2022-10-18T07:31:05;30.35;;;23.30;;
7845;SDS011;3968;51.424;6.788;2022-10-18T07:33:33;27.83;;;21.98;;
7845;SDS011;3968;51.424;6.788;2022-10-18T07:36:00;35.25;;;21.75;;
7845;SDS011;3968;51.424;6.788;2022-10-18T07:38:27;31.77;;;22.30;;
7845;SDS011;3968;51.424;6.788;2022-10-18T07:40:56;28.65;;;22.20;;
7845;SDS011;3968;51.424;6.788;2022-10-18T07:43:22;38.78;;;23.50;;
7845;SDS011;3968;51.424;6.788;2022-10-18T07:45:55;38.05;;;22.98;;
7845;SDS011;3968;51.424;6.788;2022-10-18T07:48:22;33.28;;;23.52;;
7845;SDS011;3968;51.424;6.788;2022-10-18T07:50:48;39.17;;;24.00;;
7845;SDS011;3968;51.424;6.788;2022-10-18T07:53:13;44.65;;;25.83;;
7845;SDS011;3968;51.424;6.788;2022-10-18T07:55:39;40.15;;;25.90;;
7845;SDS011;3968;51.424;6.788;2022-10-18T07:58:05;35.25;;;24.23;;
7845;SDS011;3968;51.424;6.788;2022-10-18T08:00:31;39.97;;;24.75;;
7845;SDS011;3968;51.424;6.788;2022-10-18T08:02:57;32.90;;;23.30;;
7845;SDS011;3968;51.424;6.788;2022-10-18T08:05:23;47.15;;;27.80;;
7845;SDS011;3968;51.424;6.788;2022-10-18T08:07:50;47.70;;;29.00;;
7845;SDS011;3968;51.424;6.788;2022-10-18T08:10:16;45.40;;;29.10;;
7845;SDS011;3968;51.424;6.788;2022-10-18T08:12:42;43.90;;;28.52;;
7845;SDS011;3968;51.424;6.788;2022-10-18T08:15:08;51.10;;;29.48;;
7845;SDS011;3968;51.424;6.788;2022-10-18T08:17:33;49.35;;;29.95;;
7845;SDS011;3968;51.424;6.788;2022-10-18T08:19:59;51.55;;;31.73;;
7845;SDS011;3968;51.424;6.788;2022-10-18T08:22:25;47.10;;;31.85;;
7845;SDS011;3968;51.424;6.788;2022-10-18T08:24:50;49.22;;;32.78;;
7845;SDS011;3968;51.424;6.788;2022-10-18T08:27:16;62.35;;;36.78;;
7845;SDS011;3968;51.424;6.788;2022-10-18T08:29:41;60.55;;;37.70;;
7845;SDS011;3968;51.424;6.788;2022-10-18T08:32:07;60.75;;;39.00;;
7845;SDS011;3968;51.424;6.788;2022-10-18T08:34:33;61.13;;;38.80;;
7845;SDS011;3968;51.424;6.788;2022-10-18T08:36:59;69.15;;;38.25;;
7845;SDS011;3968;51.424;6.788;2022-10-18T08:39:25;59.88;;;36.10;;
7845;SDS011;3968;51.424;6.788;2022-10-18T08:44:26;55.72;;;35.70;;
7845;SDS011;3968;51.424;6.788;2022-10-18T08:47:14;61.45;;;39.90;;
7845;SDS011;3968;51.424;6.788;2022-10-18T08:49:56;76.95;;;43.53;;
7845;SDS011;3968;51.424;6.788;2022-10-18T08:52:56;91.15;;;46.28;;
7845;SDS011;3968;51.424;6.788;2022-10-18T08:55:30;100.90;;;50.63;;
7845;SDS011;3968;51.424;6.788;2022-10-18T08:58:24;103.60;;;54.13;;
7845;SDS011;3968;51.424;6.788;2022-10-18T09:06:43;98.10;;;53.53;;
7845;SDS011;3968;51.424;6.788;2022-10-18T09:12:15;82.63;;;46.60;;
7845;SDS011;3968;51.424;6.788;2022-10-18T09:15:07;73.35;;;42.78;;
7845;SDS011;3968;51.424;6.788;2022-10-18T09:20:35;69.32;;;40.97;;
7845;SDS011;3968;51.424;6.788;2022-10-18T09:34:17;54.00;;;33.80;;
7845;SDS011;3968;51.424;6.788;2022-10-18T09:36:50;45.80;;;31.33;;
7845;SDS011;3968;51.424;6.788;2022-10-18T09:39:17;49.38;;;32.92;;
7845;SDS011;3968;51.424;6.788;2022-10-18T09:42:00;46.83;;;31.48;;
7845;SDS011;3968;51.424;6.788;2022-10-18T09:44:36;47.42;;;31.92;;
7845;SDS011;3968;51.424;6.788;2022-10-18T09:47:17;54.58;;;34.60;;
7845;SDS011;3968;51.424;6.788;2022-10-18T09:49:53;51.00;;;35.15;;
7845;SDS011;3968;51.424;6.788;2022-10-18T09:52:25;49.75;;;35.13;;
7845;SDS011;3968;51.424;6.788;2022-10-18T09:54:59;53.97;;;36.83;;
7845;SDS011;3968;51.424;6.788;2022-10-18T09:57:53;52.60;;;35.97;;
7845;SDS011;3968;51.424;6.788;2022-10-18T10:00:27;50.83;;;34.28;;
7845;SDS011;3968;51.424;6.788;2022-10-18T10:02:57;49.00;;;35.15;;
7845;SDS011;3968;51.424;6.788;2022-10-18T10:05:25;50.92;;;32.95;;
7845;SDS011;3968;51.424;6.788;2022-10-18T10:07:55;45.00;;;32.03;;
7845;SDS011;3968;51.424;6.788;2022-10-18T10:10:27;43.83;;;31.85;;
7845;SDS011;3968;51.424;6.788;2022-10-18T10:13:02;46.28;;;31.65;;
7845;SDS011;3968;51.424;6.788;2022-10-18T10:15:30;43.58;;;30.55;;
7845;SDS011;3968;51.424;6.788;2022-10-18T10:18:04;40.60;;;29.65;;
7845;SDS011;3968;51.424;6.788;2022-10-18T10:20:50;34.22;;;24.77;;
7845;SDS011;3968;51.424;6.788;2022-10-18T10:23:23;29.42;;;24.60;;
7845;SDS011;3968;51.424;6.788;2022-10-18T10:25:54;32.20;;;22.08;;
7845;SDS011;3968;51.424;6.788;2022-10-18T10:28:25;34.75;;;24.40;;
7845;SDS011;3968;51.424;6.788;2022-10-18T10:31:17;27.17;;;21.27;;
7845;SDS011;3968;51.424;6.788;2022-10-18T10:34:04;37.45;;;27.48;;
7845;SDS011;3968;51.424;6.788;2022-10-18T10:36:49;44.88;;;29.40;;
7845;SDS011;3968;51.424;6.788;2022-10-18T10:39:17;40.20;;;27.40;;
7845;SDS011;3968;51.424;6.788;2022-10-18T10:41:50;43.67;;;26.90;;
7845;SDS011;3968;51.424;6.788;2022-10-18T10:44:18;33.17;;;23.38;;
7845;SDS011;3968;51.424;6.788;2022-10-18T10:46:53;37.97;;;25.25;;
7845;SDS011;3968;51.424;6.788;2022-10-18T10:49:20;36.75;;;24.70;;
7845;SDS011;3968;51.424;6.788;2022-10-18T10:51:56;45.00;;;29.90;;
7845;SDS011;3968;51.424;6.788;2022-10-18T10:54:24;44.75;;;28.23;;
7845;SDS011;3968;51.424;6.788;2022-10-18T10:57:35;43.33;;;28.77;;
7845;SDS011;3968;51.424;6.788;2022-10-18T10:59:53;38.67;;;26.30;;
7845;SDS011;3968;51.424;6.788;2022-10-18T11:04:50;38.20;;;27.38;;
7845;SDS011;3968;51.424;6.788;2022-10-18T11:07:32;31.13;;;23.98;;
7845;SDS011;3968;51.424;6.788;2022-10-18T11:20:40;37.60;;;25.02;;
7845;SDS011;3968;51.424;6.788;2022-10-18T11:23:12;36.00;;;23.92;;
7845;SDS011;3968;51.424;6.788;2022-10-18T11:28:52;30.05;;;19.42;;
7845;SDS011;3968;51.424;6.788;2022-10-18T11:31:47;36.63;;;19.35;;
7845;SDS011;3968;51.424;6.788;2022-10-18T11:43:06;25.92;;;17.58;;
7845;SDS011;3968;51.424;6.788;2022-10-18T11:46:12;24.55;;;18.48;;
7845;SDS011;3968;51.424;6.788;2022-10-18T11:54:28;23.25;;;14.70;;
7845;SDS011;3968;51.424;6.788;2022-10-18T11:57:24;22.95;;;12.10;;
7845;SDS011;3968;51.424;6.788;2022-10-18T12:00:02;12.73;;;8.45;;
7845;SDS011;3968;51.424;6.788;2022-10-18T12:05:22;17.00;;;8.90;;
7845;SDS011;3968;51.424;6.788;2022-10-18T12:07:55;17.42;;;9.00;;
7845;SDS011;3968;51.424;6.788;2022-10-18T12:10:23;13.48;;;7.53;;
7845;SDS011;3968;51.424;6.788;2022-10-18T12:12:49;13.18;;;7.35;;
7845;SDS011;3968;51.424;6.788;2022-10-18T12:15:21;16.23;;;7.80;;
7845;SDS011;3968;51.424;6.788;2022-10-18T12:17:51;15.85;;;7.80;;
7845;SDS011;3968;51.424;6.788;2022-10-18T12:20:26;14.23;;;7.43;;
7845;SDS011;3968;51.424;6.788;2022-10-18T12:26:04;13.82;;;6.70;;
7845;SDS011;3968;51.424;6.788;2022-10-18T12:33:55;12.10;;;6.55;;
7845;SDS011;3968;51.424;6.788;2022-10-18T12:36:29;10.93;;;6.43;;
7845;SDS011;3968;51.424;6.788;2022-10-18T12:39:09;14.73;;;7.60;;
7845;SDS011;3968;51.424;6.788;2022-10-18T12:41:41;15.85;;;7.97;;
7845;SDS011;3968;51.424;6.788;2022-10-18T12:44:18;15.38;;;8.02;;
7845;SDS011;3968;51.424;6.788;2022-10-18T12:49:17;16.52;;;9.73;;
7845;SDS011;3968;51.424;6.788;2022-10-18T12:54:33;14.55;;;7.38;;
7845;SDS011;3968;51.424;6.788;2022-10-18T12:57:00;18.55;;;8.20;;
7845;SDS011;3968;51.424;6.788;2022-10-18T13:22:57;19.58;;;7.93;;
7845;SDS011;3968;51.424;6.788;2022-10-18T13:25:18;14.30;;;6.50;;
7845;SDS011;3968;51.424;6.788;2022-10-18T13:27:52;10.93;;;5.90;;
7845;SDS011;3968;51.424;6.788;2022-10-18T13:33:33;11.57;;;6.03;;
7845;SDS011;3968;51.424;6.788;2022-10-18T13:43:59;12.65;;;4.82;;
7845;SDS011;3968;51.424;6.788;2022-10-18T14:06:04;10.52;;;4.10;;
7845;SDS011;3968;51.424;6.788;2022-10-18T14:16:47;11.27;;;5.03;;
7845;SDS011;3968;51.424;6.788;2022-10-18T14:19:24;15.80;;;5.15;;
7845;SDS011;3968;51.424;6.788;2022-10-18T14:24:53;16.08;;;6.15;;
7845;SDS011;3968;51.424;6.788;2022-10-18T14:27:24;12.35;;;5.65;;
7845;SDS011;3968;51.424;6.788;2022-10-18T14:30:08;10.82;;;3.50;;
7845;SDS011;3968;51.424;6.788;2022-10-18T14:32:46;13.68;;;4.00;;
7845;SDS011;3968;51.424;6.788;2022-10-18T14:35:26;8.68;;;3.47;;
7845;SDS011;3968;51.424;6.788;2022-10-18T14:37:55;9.27;;;4.15;;
7845;SDS011;3968;51.424;6.788;2022-10-18T14:40:25;8.32;;;4.60;;
7845;SDS011;3968;51.424;6.788;2022-10-18T14:42:51;14.85;;;4.35;;
7845;SDS011;3968;51.424;6.788;2022-10-18T14:45:18;11.50;;;3.92;;
7845;SDS011;3968;51.424;6.788;2022-10-18T14:47:45;12.82;;;4.10;;
7845;SDS011;3968;51.424;6.788;2022-10-18T14:50:20;11.75;;;4.20;;
7845;SDS011;3968;51.424;6.788;2022-10-18T14:52:47;14.00;;;3.40;;
7845;SDS011;3968;51.424;6.788;2022-10-18T14:55:17;10.43;;;3.13;;
7845;SDS011;3968;51.424;6.788;2022-10-18T14:57:47;12.27;;;3.33;;
7845;SDS011;3968;51.424;6.788;2022-10-18T15:00:17;11.48;;;4.03;;
7845;SDS011;3968;51.424;6.788;2022-10-18T15:02:47;12.63;;;3.97;;
7845;SDS011;3968;51.424;6.788;2022-10-18T15:05:21;12.70;;;3.30;;
7845;SDS011;3968;51.424;6.788;2022-10-18T15:07:49;8.40;;;3.92;;
7845;SDS011;3968;51.424;6.788;2022-10-18T15:10:19;13.68;;;4.03;;
7845;SDS011;3968;51.424;6.788;2022-10-18T15:12:51;12.50;;;4.88;;
7845;SDS011;3968;51.424;6.788;2022-10-18T15:15:24;12.45;;;5.07;;
7845;SDS011;3968;51.424;6.788;2022-10-18T15:17:52;7.70;;;3.35;;
7845;SDS011;3968;51.424;6.788;2022-10-18T15:26:28;7.43;;;2.58;;
7845;SDS011;3968;51.424;6.788;2022-10-18T15:28:54;6.82;;;3.28;;
7845;SDS011;3968;51.424;6.788;2022-10-18T15:33:48;9.35;;;3.20;;
7845;SDS011;3968;51.424;6.788;2022-10-18T15:36:25;7.50;;;2.90;;
7845;SDS011;3968;51.424;6.788;2022-10-18T15:39:02;7.60;;;2.30;;
7845;SDS011;3968;51.424;6.788;2022-10-18T15:41:42;12.27;;;2.60;;
7845;SDS011;3968;51.424;6.788;2022-10-18T15:46:47;9.25;;;2.42;;
7845;SDS011;3968;51.424;6.788;2022-10-18T15:49:59;14.05;;;3.25;;
7845;SDS011;3968;51.424;6.788;2022-10-18T15:54:58;9.27;;;3.30;;
7845;SDS011;3968;51.424;6.788;2022-10-18T15:57:24;13.90;;;3.58;;
7845;SDS011;3968;51.424;6.788;2022-10-18T15:59:56;14.18;;;3.72;;
7845;SDS011;3968;51.424;6.788;2022-10-18T16:02:29;11.82;;;3.58;;
7845;SDS011;3968;51.424;6.788;2022-10-18T16:04:57;10.45;;;4.55;;
7845;SDS011;3968;51.424;6.788;2022-10-18T16:07:26;9.70;;;3.15;;
7845;SDS011;3968;51.424;6.788;2022-10-18T16:09:52;9.60;;;3.28;;
7845;SDS011;3968;51.424;6.788;2022-10-18T16:12:17;9.15;;;2.85;;
7845;SDS011;3968;51.424;6.788;2022-10-18T16:14:43;14.38;;;4.00;;
7845;SDS011;3968;51.424;6.788;2022-10-18T16:17:09;12.20;;;4.35;;
7845;SDS011;3968;51.424;6.788;2022-10-18T16:19:41;8.13;;;3.78;;
7845;SDS011;3968;51.424;6.788;2022-10-18T16:22:09;11.43;;;4.40;;
7845;SDS011;3968;51.424;6.788;2022-10-18T16:24:36;16.63;;;3.40;;
7845;SDS011;3968;51.424;6.788;2022-10-18T16:27:02;9.20;;;3.80;;
7845;SDS011;3968;51.424;6.788;2022-10-18T16:29:28;12.73;;;3.75;;
7845;SDS011;3968;51.424;6.788;2022-10-18T16:31:56;12.68;;;3.60;;
7845;SDS011;3968;51.424;6.788;2022-10-18T16:34:22;8.05;;;3.30;;
7845;SDS011;3968;51.424;6.788;2022-10-18T16:36:50;12.00;;;4.07;;
7845;SDS011;3968;51.424;6.788;2022-10-18T16:39:17;10.02;;;3.42;;
7845;SDS011;3968;51.424;6.788;2022-10-18T16:41:44;8.57;;;3.58;;
7845;SDS011;3968;51.424;6.788;2022-10-18T16:44:10;11.70;;;5.30;;
7845;SDS011;3968;51.424;6.788;2022-10-18T16:46:37;11.77;;;3.60;;
7845;SDS011;3968;51.424;6.788;2022-10-18T16:49:03;10.68;;;3.80;;
7845;SDS011;3968;51.424;6.788;2022-10-18T16:51:29;9.93;;;3.78;;
7845;SDS011;3968;51.424;6.788;2022-10-18T16:53:55;9.60;;;3.55;;
7845;SDS011;3968;51.424;6.788;2022-10-18T16:56:23;17.17;;;4.38;;
7845;SDS011;3968;51.424;6.788;2022-10-18T16:58:51;14.07;;;4.25;;
7845;SDS011;3968;51.424;6.788;2022-10-18T17:01:19;11.95;;;3.90;;
7845;SDS011;3968;51.424;6.788;2022-10-18T17:03:46;16.58;;;4.10;;
7845;SDS011;3968;51.424;6.788;2022-10-18T17:06:31;13.10;;;4.25;;
7845;SDS011;3968;51.424;6.788;2022-10-18T17:08:57;10.32;;;4.25;;
7845;SDS011;3968;51.424;6.788;2022-10-18T17:11:23;14.63;;;3.65;;
7845;SDS011;3968;51.424;6.788;2022-10-18T17:13:50;11.15;;;4.10;;
7845;SDS011;3968;51.424;6.788;2022-10-18T17:18:42;12.57;;;4.27;;
7845;SDS011;3968;51.424;6.788;2022-10-18T17:21:07;13.00;;;4.20;;
7845;SDS011;3968;51.424;6.788;2022-10-18T17:23:33;14.17;;;3.60;;
7845;SDS011;3968;51.424;6.788;2022-10-18T17:25:58;13.65;;;4.30;;
7845;SDS011;3968;51.424;6.788;2022-10-18T17:28:24;14.00;;;4.83;;
7845;SDS011;3968;51.424;6.788;2022-10-18T17:30:50;16.20;;;4.07;;
7845;SDS011;3968;51.424;6.788;2022-10-18T17:33:16;11.30;;;4.10;;
7845;SDS011;3968;51.424;6.788;2022-10-18T17:35:41;13.70;;;3.63;;
7845;SDS011;3968;51.424;6.788;2022-10-18T17:38:08;11.93;;;4.50;;
7845;SDS011;3968;51.424;6.788;2022-10-18T17:40:34;11.27;;;4.78;;
7845;SDS011;3968;51.424;6.788;2022-10-18T17:43:04;25.53;;;10.70;;
7845;SDS011;3968;51.424;6.788;2022-10-18T17:45:30;25.80;;;11.00;;
7845;SDS011;3968;51.424;6.788;2022-10-18T17:47:55;16.80;;;8.52;;
7845;SDS011;3968;51.424;6.788;2022-10-18T17:50:21;19.13;;;8.00;;
7845;SDS011;3968;51.424;6.788;2022-10-18T17:52:47;14.30;;;7.00;;
7845;SDS011;3968;51.424;6.788;2022-10-18T17:55:12;16.67;;;6.00;;
7845;SDS011;3968;51.424;6.788;2022-10-18T17:57:39;14.23;;;5.80;;
7845;SDS011;3968;51.424;6.788;2022-10-18T18:00:06;21.23;;;6.50;;
7845;SDS011;3968;51.424;6.788;2022-10-18T18:02:33;11.30;;;4.73;;
7845;SDS011;3968;51.424;6.788;2022-10-18T18:04:59;12.67;;;4.20;;
7845;SDS011;3968;51.424;6.788;2022-10-18T18:07:25;14.27;;;5.47;;